Terminal Aerodrome Forecast
Issued by NWS

Home | Current Version | Previous Version | Text Only | Print | Product List | Glossary On
Versions: 1 2 3 4 5 6 7 8 9 10 11 12 13 14 15 16 17 18 19 20
730
FTUS41 KBTV 112333
TAFRUT
TAF
KRUT 112333Z 1200/1224 VRB03KT P6SM BKN150
     FM120700 12009KT 6SM BR VCSH OVC045
     FM120900 13012KT 2SM -SN BR OVC025
     FM121300 12017G23KT 1 1/2SM -SN BR OVC025
     FM122000 12008KT 4SM -SN BR OVC015=

USA.gov is the U.S. government's official web portal to all federal, state and local government web resources and services.